Time;durP1;ratioP1;P1;durP2;ratioP2;P2;SDS_P1;SDS_P2;PMS_P1;PMS_P2;Temp;Humidity;BMP_temperature;BMP_pressure;BME280_temperature;BME280_humidity;BME280_pressure;Samples;Min_cycle;Max_cycle;Signal;HPM_P1;HPM_P2
2022/12/02 16:17:50;;;;;;;165.25;87.13;;;7.70;99.90;;;;;;4912812;23;19946;-86
2022/12/02 16:20:17;;;;;;;169.27;87.53;;;7.70;99.90;;;;;;4928846;29;20146;-87
2022/12/02 16:22:44;;;;;;;160.23;86.15;;;7.60;99.90;;;;;;4925887;29;20056;-87
2022/12/02 16:25:12;;;;;;;177.02;93.32;;;7.60;99.90;;;;;;4932118;29;20052;-86
2022/12/02 16:27:39;;;;;;;203.32;101.95;;;7.60;99.90;;;;;;4928045;29;20094;-88
2022/12/02 16:30:08;;;;;;;222.02;111.20;;;7.60;99.90;;;;;;4922175;29;20036;-87
2022/12/02 16:32:35;;;;;;;226.85;110.70;;;7.50;99.90;;;;;;4913817;29;20069;-87
2022/12/02 16:35:04;;;;;;;211.70;107.32;;;7.50;99.90;;;;;;4917517;29;20067;-86
2022/12/02 16:37:33;;;;;;;210.02;102.53;;;7.50;99.90;;;;;;4933719;29;20048;-91
2022/12/02 16:40:00;;;;;;;192.77;97.53;;;7.60;99.90;;;;;;4914343;29;20036;-88
2022/12/02 16:42:28;;;;;;;220.02;108.57;;;7.60;99.90;;;;;;4934339;29;20036;-86
2022/12/02 16:44:55;;;;;;;206.23;104.03;;;7.60;99.90;;;;;;4932429;29;20052;-87
2022/12/02 16:47:22;;;;;;;216.30;106.72;;;7.60;99.90;;;;;;4913373;29;20052;-85
2022/12/02 16:49:50;;;;;;;207.63;108.15;;;7.50;99.90;;;;;;4932190;29;20044;-83
2022/12/02 16:52:19;;;;;;;212.85;110.18;;;7.60;99.90;;;;;;4932043;29;20048;-85
2022/12/02 16:54:46;;;;;;;201.98;100.80;;;7.60;99.90;;;;;;4916033;29;20064;-83
2022/12/02 16:57:14;;;;;;;216.65;108.22;;;7.60;99.90;;;;;;4935373;29;20640;-83
2022/12/02 16:59:41;;;;;;;214.23;108.30;;;7.60;99.90;;;;;;4939420;29;20047;-81
2022/12/02 17:02:09;;;;;;;198.45;99.97;;;7.60;99.90;;;;;;4944368;29;20075;-80
2022/12/02 17:04:37;;;;;;;178.45;95.72;;;7.60;99.90;;;;;;4949234;29;20040;-81
2022/12/02 17:07:05;;;;;;;182.57;97.57;;;7.50;99.90;;;;;;4950019;29;20043;-80
2022/12/02 17:09:33;;;;;;;175.57;96.15;;;7.50;99.90;;;;;;4944500;29;20047;-84
2022/12/02 17:12:01;;;;;;;179.73;99.80;;;7.50;99.90;;;;;;4939610;29;20043;-82
2022/12/02 17:14:28;;;;;;;192.05;109.47;;;7.40;99.90;;;;;;4928006;29;20389;-83
2022/12/02 17:16:55;;;;;;;215.15;124.22;;;7.40;99.90;;;;;;4916763;29;20058;-82
2022/12/02 17:19:23;;;;;;;233.02;138.18;;;7.30;99.90;;;;;;4935384;29;20048;-82
2022/12/02 17:21:50;;;;;;;231.90;129.07;;;7.30;99.90;;;;;;4935526;29;20396;-82
2022/12/02 17:24:17;;;;;;;233.00;129.65;;;7.30;99.90;;;;;;4918149;29;20048;-81
2022/12/02 17:26:46;;;;;;;235.40;125.38;;;7.30;99.90;;;;;;4934528;29;20063;-83
2022/12/02 17:29:14;;;;;;;230.63;124.80;;;7.30;99.90;;;;;;4938581;29;20039;-83
2022/12/02 17:31:43;;;;;;;244.95;131.45;;;7.30;99.90;;;;;;4950575;29;20059;-83
2022/12/02 17:34:12;;;;;;;236.40;129.07;;;7.30;99.90;;;;;;4952880;29;20048;-81
2022/12/02 17:36:40;;;;;;;250.90;133.57;;;7.30;99.90;;;;;;4940663;29;20044;-83
2022/12/02 17:39:08;;;;;;;248.63;131.52;;;7.30;99.90;;;;;;4934629;29;20060;-84
2022/12/02 17:41:35;;;;;;;236.68;124.93;;;7.30;99.90;;;;;;4934968;29;20044;-83
2022/12/02 17:44:12;;;;;;;199.00;111.60;;;7.30;99.90;;;;;;4935504;29;20048;-83
2022/12/02 17:46:39;;;;;;;198.82;111.20;;;7.30;99.90;;;;;;4933507;29;20483;-84
2022/12/02 17:49:08;;;;;;;169.25;94.00;;;7.20;99.90;;;;;;4934039;29;20267;-83
2022/12/02 17:51:37;;;;;;;219.32;122.25;;;7.20;99.90;;;;;;4939900;29;20546;-82
2022/12/02 17:54:04;;;;;;;297.30;151.07;;;7.20;99.90;;;;;;4940181;29;20464;-81
2022/12/02 17:56:31;;;;;;;238.07;125.60;;;7.20;99.90;;;;;;4932888;29;20052;-83
2022/12/02 17:58:59;;;;;;;173.45;100.78;;;7.20;99.90;;;;;;4933618;29;20050;-80
2022/12/02 18:01:27;;;;;;;178.73;99.43;;;7.20;99.90;;;;;;4934487;29;20050;-80
2022/12/02 18:03:55;;;;;;;169.05;98.13;;;7.20;99.90;;;;;;4934780;29;20048;-84
2022/12/02 18:06:30;;;;;;;164.05;95.07;;;7.20;99.90;;;;;;4934743;29;20044;-83
2022/12/02 18:15:33;;;;;;;154.25;93.82;;;7.20;99.90;;;;;;4927209;29;20059;-83
2022/12/02 18:18:10;;;;;;;146.10;90.82;;;7.20;99.90;;;;;;4933511;29;20122;-84
2022/12/02 18:20:48;;;;;;;181.13;105.85;;;7.20;99.90;;;;;;4934328;29;20044;-84
2022/12/02 18:28:04;;;;;;;222.82;132.68;;;7.10;99.90;;;;;;4912809;29;20406;-83
2022/12/02 18:30:37;;;;;;;285.40;169.57;;;7.00;99.90;;;;;;4915055;29;20039;-84
2022/12/02 18:33:15;;;;;;;274.58;165.55;;;7.00;99.90;;;;;;4918660;29;20155;-82
2022/12/02 18:35:55;;;;;;;224.17;135.57;;;6.90;99.90;;;;;;4916756;29;20501;-84
2022/12/02 18:41:54;;;;;;;194.38;116.70;;;6.90;99.90;;;;;;4934163;29;20073;-85
2022/12/02 18:59:09;;;;;;;143.32;87.03;;;6.90;99.90;;;;;;4837172;29;20358;-87
2022/12/02 19:02:34;;;;;;;163.05;98.00;;;6.90;99.90;;;;;;4843442;29;20305;-86
2022/12/02 19:11:58;;;;;;;142.57;83.00;;;6.80;99.90;;;;;;4837539;29;20068;-85
2022/12/02 19:14:29;;;;;;;139.27;83.60;;;6.60;99.90;;;;;;4919327;29;20070;-88
2022/12/02 19:16:57;;;;;;;146.45;89.35;;;6.60;99.90;;;;;;4933634;29;20039;-85
2022/12/02 19:19:36;;;;;;;160.10;95.80;;;6.60;99.90;;;;;;4916590;29;20039;-87
2022/12/02 19:22:03;;;;;;;161.68;95.32;;;6.50;99.90;;;;;;4932304;29;20507;-89
2022/12/02 19:28:02;;;;;;;145.57;82.80;;;6.50;99.90;;;;;;4930629;29;20075;-87
2022/12/02 19:30:32;;;;;;;153.90;92.45;;;6.60;99.90;;;;;;4914158;29;20040;-86
2022/12/02 19:33:05;;;;;;;149.77;89.13;;;6.60;99.90;;;;;;4932579;29;20511;-87
2022/12/02 19:35:40;;;;;;;128.95;77.53;;;6.70;99.90;;;;;;4932742;29;20035;-86
2022/12/02 19:41:04;;;;;;;90.20;54.50;;;6.80;99.90;;;;;;4915377;29;20044;-87
2022/12/02 19:43:43;;;;;;;84.40;51.70;;;6.80;99.90;;;;;;4932429;29;20077;-85
2022/12/02 19:46:20;;;;;;;112.18;68.60;;;6.80;99.90;;;;;;4917059;29;20082;-85
2022/12/02 19:48:49;;;;;;;160.40;94.57;;;6.80;99.90;;;;;;4916601;29;20447;-79
2022/12/02 19:51:17;;;;;;;117.00;68.18;;;6.80;99.90;;;;;;4930918;29;20079;-77
2022/12/02 19:53:44;;;;;;;112.30;67.78;;;6.80;99.90;;;;;;4932019;29;20467;-77
2022/12/02 19:56:22;;;;;;;105.75;62.67;;;6.80;99.90;;;;;;4930294;29;20040;-82
2022/12/02 19:58:51;;;;;;;83.20;50.53;;;6.80;99.90;;;;;;4932318;29;20764;-81
2022/12/02 20:01:19;;;;;;;106.30;63.10;;;6.80;99.90;;;;;;4930638;29;20392;-78
2022/12/02 20:03:47;;;;;;;101.00;60.05;;;6.80;99.90;;;;;;4915080;29;20443;-78
2022/12/02 20:06:14;;;;;;;109.28;66.18;;;6.80;99.90;;;;;;4930830;29;20043;-78
2022/12/02 20:08:41;;;;;;;117.32;69.18;;;6.80;99.90;;;;;;4935458;29;20149;-78
2022/12/02 20:11:09;;;;;;;110.93;66.70;;;6.80;99.90;;;;;;4942265;29;20048;-78
2022/12/02 20:13:36;;;;;;;119.35;72.20;;;6.80;99.90;;;;;;4936154;29;20043;-80
2022/12/02 20:16:05;;;;;;;151.02;91.43;;;6.80;99.90;;;;;;4931946;29;20054;-79
2022/12/02 20:18:32;;;;;;;177.23;102.00;;;6.70;99.90;;;;;;4932636;29;20105;-78
2022/12/02 20:21:00;;;;;;;143.52;83.10;;;6.80;99.90;;;;;;4932671;29;20072;-80
2022/12/02 20:23:28;;;;;;;144.80;83.93;;;6.70;99.90;;;;;;4932250;29;20040;-79
2022/12/02 20:25:55;;;;;;;147.45;81.90;;;6.70;99.90;;;;;;4930506;29;20035;-80
2022/12/02 20:28:23;;;;;;;139.15;79.13;;;6.80;99.90;;;;;;4931694;29;20110;-82
2022/12/02 20:30:50;;;;;;;137.77;79.68;;;6.80;99.90;;;;;;4932505;29;20395;-82
2022/12/02 20:33:19;;;;;;;129.98;76.65;;;6.80;99.90;;;;;;4934890;29;20047;-81
2022/12/02 20:35:46;;;;;;;146.43;85.13;;;6.80;99.90;;;;;;4917550;29;20079;-82
2022/12/02 20:38:13;;;;;;;140.35;81.50;;;6.70;99.90;;;;;;4934824;29;20047;-81
2022/12/02 20:40:41;;;;;;;127.70;76.95;;;6.70;99.90;;;;;;4934603;29;20054;-82
2022/12/02 20:43:09;;;;;;;119.05;70.25;;;6.70;99.90;;;;;;4933841;29;20043;-82
2022/12/02 20:45:37;;;;;;;123.63;72.70;;;6.70;99.90;;;;;;4934911;29;20451;-82
2022/12/02 20:48:04;;;;;;;123.00;73.93;;;6.60;99.90;;;;;;4934524;29;20463;-83
2022/12/02 20:50:33;;;;;;;124.97;75.20;;;6.60;99.90;;;;;;4935102;29;20047;-82
2022/12/02 20:53:00;;;;;;;132.45;78.95;;;6.60;99.90;;;;;;4935116;29;20077;-83
2022/12/02 20:55:28;;;;;;;129.68;76.03;;;6.60;99.90;;;;;;4934456;29;20157;-82
2022/12/02 20:57:55;;;;;;;126.00;76.82;;;6.70;99.90;;;;;;4934662;29;20047;-83
2022/12/02 21:00:23;;;;;;;192.00;108.65;;;6.70;99.90;;;;;;4935335;29;20048;-82
2022/12/02 21:02:50;;;;;;;173.30;99.93;;;6.70;99.90;;;;;;4918595;29;20047;-83
2022/12/02 21:05:18;;;;;;;177.55;103.70;;;6.60;99.90;;;;;;4917767;29;20445;-81
2022/12/02 21:07:46;;;;;;;166.07;96.75;;;6.60;99.90;;;;;;4934027;29;20067;-82
2022/12/02 21:10:15;;;;;;;157.40;89.95;;;6.60;99.90;;;;;;4935224;29;20563;-83
2022/12/02 21:12:42;;;;;;;141.65;83.10;;;6.60;99.90;;;;;;4938099;29;20058;-83
2022/12/02 21:23:29;;;;;;;135.23;83.57;;;6.60;99.90;;;;;;4778690;29;20467;-81
2022/12/02 21:26:22;;;;;;;116.20;72.22;;;6.60;99.90;;;;;;4792450;29;20587;-82
2022/12/02 21:30:05;;;;;;;118.68;72.43;;;6.60;99.90;;;;;;4866103;29;20505;-83
2022/12/02 21:33:19;;;;;;;124.05;73.63;;;6.60;99.90;;;;;;4836000;29;20056;-83
2022/12/02 21:36:05;;;;;;;123.55;74.57;;;6.60;99.90;;;;;;4777688;29;20047;-83
2022/12/02 21:38:52;;;;;;;120.28;74.30;;;6.60;99.90;;;;;;4846408;29;20045;-83
2022/12/02 21:44:59;;;;;;;119.65;72.75;;;6.50;99.90;;;;;;4941387;29;20083;-84
2022/12/02 21:51:12;;;;;;;125.18;73.72;;;6.50;99.90;;;;;;4917690;29;20138;-82
2022/12/02 21:54:39;;;;;;;;;;;;;;;;;;;;;
2022/12/02 21:57:31;;;;;;;131.85;80.43;;;6.40;99.90;;;;;;4932700;29;20050;-84
2022/12/02 22:00:07;;;;;;;135.18;79.72;;;6.40;99.90;;;;;;4933678;29;20421;-82
2022/12/02 22:02:48;;;;;;;134.68;81.25;;;6.40;99.90;;;;;;4933345;29;20051;-82
2022/12/02 22:05:43;;;;;;;125.63;74.80;;;6.40;99.90;;;;;;4932019;29;20051;-83
2022/12/02 22:08:26;;;;;;;124.22;76.63;;;6.40;99.90;;;;;;4932194;29;20066;-81
2022/12/02 22:13:42;;;;;;;122.43;75.47;;;6.40;99.90;;;;;;4931617;29;20103;-83
2022/12/02 22:16:11;;;;;;;132.10;78.63;;;6.40;99.90;;;;;;4946917;23;20047;-75
2022/12/02 22:18:38;;;;;;;140.30;81.53;;;6.40;99.90;;;;;;4943545;29;20051;-74
2022/12/02 22:21:06;;;;;;;132.65;76.40;;;6.50;99.90;;;;;;4925929;29;20054;-76
2022/12/02 22:23:33;;;;;;;119.72;72.15;;;6.40;99.90;;;;;;4943667;28;20050;-77
2022/12/02 22:26:02;;;;;;;124.60;70.95;;;6.30;99.90;;;;;;4942882;29;20511;-74
2022/12/02 22:28:30;;;;;;;109.88;71.03;;;6.30;99.90;;;;;;4941753;29;20039;-76
2022/12/02 22:30:59;;;;;;;108.97;66.57;;;6.30;99.90;;;;;;4924112;29;20421;-75
2022/12/02 22:33:27;;;;;;;109.07;65.20;;;6.30;99.90;;;;;;4925250;29;20063;-75
2022/12/02 22:35:54;;;;;;;116.97;68.40;;;6.10;99.90;;;;;;4937534;29;20046;-73
2022/12/02 22:38:22;;;;;;;112.72;68.65;;;6.10;99.90;;;;;;4942676;29;20527;-74
2022/12/02 22:40:49;;;;;;;102.85;62.63;;;6.10;99.90;;;;;;4942787;29;20040;-76
2022/12/02 22:43:21;;;;;;;115.18;69.88;;;6.10;99.90;;;;;;4934328;29;20052;-76
2022/12/02 22:45:48;;;;;;;108.43;65.18;;;6.10;99.90;;;;;;4943062;29;20047;-73
2022/12/02 22:48:15;;;;;;;102.97;62.42;;;6.10;99.90;;;;;;4943527;29;20189;-77
2022/12/02 22:50:43;;;;;;;107.18;66.05;;;6.10;99.90;;;;;;4943138;29;20495;-74
2022/12/02 22:53:10;;;;;;;81.40;50.90;;;6.10;99.90;;;;;;4942925;28;20082;-77
2022/12/02 22:55:38;;;;;;;87.30;52.55;;;6.10;99.90;;;;;;4940892;29;20031;-74
2022/12/02 22:58:05;;;;;;;71.00;44.20;;;6.10;99.90;;;;;;4941817;29;20071;-76
2022/12/02 23:00:34;;;;;;;71.18;44.35;;;6.00;99.90;;;;;;4943531;29;20043;-76
2022/12/02 23:03:01;;;;;;;71.15;43.70;;;6.00;99.90;;;;;;4927765;29;20058;-76
2022/12/02 23:05:29;;;;;;;76.57;45.40;;;5.90;99.90;;;;;;4942870;29;20106;-74
2022/12/02 23:07:56;;;;;;;61.58;38.55;;;6.00;99.90;;;;;;4943806;29;20098;-76
2022/12/02 23:10:23;;;;;;;55.05;35.42;;;6.00;99.90;;;;;;4942851;29;20046;-75
2022/12/02 23:12:51;;;;;;;56.25;35.35;;;6.00;99.90;;;;;;4925915;29;20073;-76
2022/12/02 23:15:18;;;;;;;57.55;36.70;;;6.00;99.90;;;;;;4925246;29;20055;-74
2022/12/02 23:17:47;;;;;;;77.18;46.22;;;6.00;99.90;;;;;;4941505;29;20051;-72
2022/12/02 23:20:15;;;;;;;87.47;52.33;;;6.00;99.90;;;;;;4925635;29;20122;-74
2022/12/02 23:22:42;;;;;;;68.88;43.88;;;6.00;99.90;;;;;;4943395;29;20046;-73
2022/12/02 23:25:10;;;;;;;70.97;42.60;;;6.00;99.90;;;;;;4939311;28;20389;-77
2022/12/02 23:27:38;;;;;;;74.40;44.97;;;5.90;99.90;;;;;;4926769;29;20054;-77
2022/12/02 23:30:08;;;;;;;72.70;42.58;;;5.90;99.90;;;;;;4936880;29;20094;-78
2022/12/02 23:32:36;;;;;;;74.43;45.53;;;5.90;99.90;;;;;;4946086;29;20047;-77
2022/12/02 23:35:05;;;;;;;89.53;53.50;;;6.00;99.90;;;;;;4946962;28;20043;-76
2022/12/02 23:37:33;;;;;;;80.88;48.67;;;6.00;99.90;;;;;;4941361;29;20051;-79
2022/12/02 23:40:00;;;;;;;76.55;46.45;;;6.10;99.90;;;;;;4941789;29;20051;-77
2022/12/02 23:42:27;;;;;;;78.43;47.45;;;6.10;99.90;;;;;;4943856;29;20047;-77
2022/12/02 23:44:55;;;;;;;76.60;46.45;;;6.10;99.90;;;;;;4942885;28;20043;-74
2022/12/02 23:47:22;;;;;;;89.30;58.17;;;6.10;99.90;;;;;;4954467;28;20063;-77
2022/12/02 23:49:50;;;;;;;93.40;57.28;;;6.00;99.90;;;;;;4966517;28;20019;-75
2022/12/02 23:52:20;;;;;;;80.55;49.42;;;5.90;99.90;;;;;;4948961;28;20063;-75
2022/12/02 23:54:47;;;;;;;75.18;47.70;;;5.90;99.90;;;;;;4944167;28;20051;-76
2022/12/02 23:57:14;;;;;;;80.65;51.03;;;5.90;99.90;;;;;;4926166;29;20051;-76
2022/12/02 23:59:42;;;;;;;80.00;51.08;;;6.00;99.90;;;;;;4944721;29;20043;-77
